Alpine Link — V7SZ7 — position and weather

sailwx.info

Track history (hours):
 
Tides and Currents Weather Stations Pressure Air Temp Water Temp Dewpoint Dewpoint Depression Visibility Wind Speed Wind Dir Waves Ship Positions

Alpine Link

Last reported at 2016-May-31 04:33 UTC. Time now 2016-May-31 05:59 UTC.
Position N 37°10' E 024°10'.

Length 183 m; draft 8.5 m.

Type: Tanker. MMSI: 538003758.

Date/timePositionNaut miles runAvg speedWind from/ knotsBaromVisibWave heightAir tempDewpointWater temp
2016-May-31 04:33N 37°10' E 024°10'1312.8
2016-May-31 03:33N 36°58' E 024°05'1413.8
2016-May-31 02:33N 36°44' E 023°60'1414.0
2016-May-31 01:34N 36°34' E 023°48'1414.2
2016-May-31 00:33N 36°24' E 023°35'14212.9
2016-May-30 13:29N 36°09' E 020°40'4114.1
2016-May-30 10:33N 36°12' E 019°49'16513.8
2016-May-29 22:33N 36°15' E 016°24'4013.5
2016-May-29 19:33N 36°15' E 015°34'1413.6
2016-May-29 18:33N 36°15' E 015°17'1413.9
2016-May-29 17:33N 36°14' E 014°60'1413.6
2016-May-29 16:33N 36°14' E 014°43'1413.7
2016-May-29 15:33N 36°17' E 014°26'1413.7
2016-May-29 14:34N 36°21' E 014°10'1413.8
2016-May-29 13:33N 36°25' E 013°54'1413.7
2016-May-29 12:34N 36°29' E 013°37'1413.7
2016-May-29 11:33N 36°33' E 013°21'1413.9
2016-May-29 10:33N 36°37' E 013°04'1514.1
2016-May-29 09:29N 36°42' E 012°46'1314.0
2016-May-29 08:34N 36°47' E 012°31'1413.9
2016-May-29 07:31N 36°53' E 012°15'7214.4
2016-May-29 02:30N 37°28' E 010°56'1614.1
2016-May-29 01:23N 37°32' E 010°37'1214.2
2016-May-29 00:34N 37°34' E 010°22'5513.8
2016-May-28 20:32N 37°39' E 009°13'1513.5
2016-May-28 19:24N 37°42' E 008°54'1813.7
2016-May-28 18:06N 37°41' E 008°31'21413.8
2016-May-28 02:33N 37°21' E 004°03'1514.4
2016-May-28 01:32N 37°18' E 003°45'1714.0
2016-May-28 00:21N 37°14' E 003°25'1214.1
2016-May-27 23:31N 37°11' E 003°10'1514.0
2016-May-27 22:26N 37°08' E 002°52'1213.9
2016-May-27 21:33N 37°04' E 002°37'1514.1
2016-May-27 20:29N 37°02' E 002°18'1414.6
2016-May-27 19:33N 36°59' E 002°02'1514.5
2016-May-27 18:33N 36°56' E 001°44'1514.5
2016-May-27 17:33N 36°54' E 001°26'1414.2
2016-May-27 16:33N 36°51' E 001°09'1414.2
2016-May-27 15:33N 36°47' E 000°51'1613.9
2016-May-27 14:26N 36°44' E 000°32'1513.9
2016-May-27 13:21N 36°41' E 000°14'2413.5
2016-May-27 11:33N 36°35' W 000°15'1614.0
2016-May-27 10:26N 36°32' W 000°34'22714.3
2016-May-26 18:33N 35°59' W 005°12'  
Track history (hours):
 
Tides and Currents Weather Stations Pressure Air Temp Water Temp Dewpoint Dewpoint Depression Visibility Wind Speed Wind Dir Waves Ship Positions

Alpine Link

Last reported at 2016-May-31 04:33 UTC. Time now 2016-May-31 05:59 UTC.
Position N 37°10' E 024°10'.

Length 183 m; draft 8.5 m.

Type: Tanker. MMSI: 538003758.

Date/timePositionNaut miles runAvg speedWind from/ knotsBaromVisibWave heightAir tempDewpointWater temp
2016-May-31 04:33N 37°10' E 024°10'1312.8
2016-May-31 03:33N 36°58' E 024°05'1413.8
2016-May-31 02:33N 36°44' E 023°60'1414.0
2016-May-31 01:34N 36°34' E 023°48'1414.2
2016-May-31 00:33N 36°24' E 023°35'14212.9
2016-May-30 13:29N 36°09' E 020°40'4114.1
2016-May-30 10:33N 36°12' E 019°49'16513.8
2016-May-29 22:33N 36°15' E 016°24'4013.5
2016-May-29 19:33N 36°15' E 015°34'1413.6
2016-May-29 18:33N 36°15' E 015°17'1413.9
2016-May-29 17:33N 36°14' E 014°60'1413.6
2016-May-29 16:33N 36°14' E 014°43'1413.7
2016-May-29 15:33N 36°17' E 014°26'1413.7
2016-May-29 14:34N 36°21' E 014°10'1413.8
2016-May-29 13:33N 36°25' E 013°54'1413.7
2016-May-29 12:34N 36°29' E 013°37'1413.7
2016-May-29 11:33N 36°33' E 013°21'1413.9
2016-May-29 10:33N 36°37' E 013°04'1514.1
2016-May-29 09:29N 36°42' E 012°46'1314.0
2016-May-29 08:34N 36°47' E 012°31'1413.9
2016-May-29 07:31N 36°53' E 012°15'7214.4
2016-May-29 02:30N 37°28' E 010°56'1614.1
2016-May-29 01:23N 37°32' E 010°37'1214.2
2016-May-29 00:34N 37°34' E 010°22'5513.8
2016-May-28 20:32N 37°39' E 009°13'1513.5
2016-May-28 19:24N 37°42' E 008°54'1813.7
2016-May-28 18:06N 37°41' E 008°31'21413.8
2016-May-28 02:33N 37°21' E 004°03'1514.4
2016-May-28 01:32N 37°18' E 003°45'1714.0
2016-May-28 00:21N 37°14' E 003°25'1214.1
2016-May-27 23:31N 37°11' E 003°10'1514.0
2016-May-27 22:26N 37°08' E 002°52'1213.9
2016-May-27 21:33N 37°04' E 002°37'1514.1
2016-May-27 20:29N 37°02' E 002°18'1414.6
2016-May-27 19:33N 36°59' E 002°02'1514.5
2016-May-27 18:33N 36°56' E 001°44'1514.5
2016-May-27 17:33N 36°54' E 001°26'1414.2
2016-May-27 16:33N 36°51' E 001°09'1414.2
2016-May-27 15:33N 36°47' E 000°51'1613.9
2016-May-27 14:26N 36°44' E 000°32'1513.9
2016-May-27 13:21N 36°41' E 000°14'2413.5
2016-May-27 11:33N 36°35' W 000°15'1614.0
2016-May-27 10:26N 36°32' W 000°34'22714.3
2016-May-26 18:33N 35°59' W 005°12'  

Dump ship's entire track history